createdAt,value
2022-11-28T00:01:57.156Z,101086.38
2022-11-28T00:04:27.538Z,101079.97
2022-11-28T00:06:56.704Z,101081.44
2022-11-28T00:09:28.454Z,101085.88
2022-11-28T00:11:57.248Z,101090.97
2022-11-28T00:14:26.382Z,101085.31
2022-11-28T00:16:55.427Z,101071.56
2022-11-28T00:19:24.694Z,101084.06
2022-11-28T00:21:55.050Z,101077.44
2022-11-28T00:24:24.283Z,101083.88
2022-11-28T00:26:53.545Z,101070.66
2022-11-28T00:29:22.983Z,101075.16
2022-11-28T00:31:52.155Z,101070.78
2022-11-28T00:34:21.342Z,101071.28
2022-11-28T00:36:51.081Z,101066.78
2022-11-28T00:39:21.503Z,101048.88
2022-11-28T00:41:50.079Z,101046.66
2022-11-28T00:44:19.380Z,101050.94
2022-11-28T00:46:48.378Z,101054.94
2022-11-28T00:49:17.654Z,101051.91
2022-11-28T00:51:47.056Z,101051.34
2022-11-28T00:54:16.256Z,101050.41
2022-11-28T00:56:48.553Z,101056.72
2022-11-28T00:59:17.547Z,101058.03
2022-11-28T01:01:46.890Z,101058.13
2022-11-28T01:04:18.672Z,101033.38
2022-11-28T01:06:50.626Z,101041.91
2022-11-28T01:09:23.152Z,101024.41
2022-11-28T01:11:55.572Z,101025.16
2022-11-28T01:14:27.838Z,101020.41
2022-11-28T01:16:57.076Z,101011.47
2022-11-28T01:19:27.599Z,101009.97
2022-11-28T01:21:56.307Z,101014.84
2022-11-28T01:24:25.189Z,101010.63
2022-11-28T01:26:55.559Z,101005.69
2022-11-28T01:29:24.148Z,101007.00
2022-11-28T01:31:53.084Z,101004.38
2022-11-28T01:34:22.029Z,101006.31
2022-11-28T01:36:51.059Z,101005.41
2022-11-28T01:39:19.843Z,101009.75
2022-11-28T01:41:48.407Z,101001.72
2022-11-28T01:45:22.320Z,100993.19
2022-11-28T01:47:58.511Z,100999.66
2022-11-28T01:50:28.796Z,100994.41
2022-11-28T01:53:03.211Z,101000.00
2022-11-28T01:55:37.266Z,101003.09
2022-11-28T01:58:07.075Z,100995.88
2022-11-28T02:00:36.113Z,100988.50
2022-11-28T02:03:12.536Z,100997.75
2022-11-28T02:05:43.597Z,100993.63
2022-11-28T02:08:12.959Z,100991.03
2022-11-28T02:11:12.033Z,101000.22
2022-11-28T02:13:54.658Z,100990.47
2022-11-28T02:16:49.276Z,100990.28
2022-11-28T02:20:10.326Z,100993.66
2022-11-28T02:22:46.886Z,100991.47
2022-11-28T02:26:04.276Z,100980.16
2022-11-28T02:29:36.728Z,100971.66
2022-11-28T02:32:25.284Z,100977.78
2022-11-28T02:35:03.741Z,100968.50
2022-11-28T02:37:44.289Z,100968.19
2022-11-28T02:40:24.600Z,100973.22
2022-11-28T02:43:06.677Z,100966.53
2022-11-28T02:45:52.418Z,100974.16
2022-11-28T02:48:27.971Z,100966.63
2022-11-28T02:51:07.036Z,100970.31
2022-11-28T02:53:39.664Z,100974.47
2022-11-28T02:56:12.624Z,100972.56
2022-11-28T02:58:41.634Z,100975.91
2022-11-28T03:01:18.644Z,100975.03
2022-11-28T03:04:23.480Z,100974.22
2022-11-28T03:07:03.004Z,100964.34
2022-11-28T03:09:57.601Z,100967.84
2022-11-28T03:12:40.642Z,100976.34
2022-11-28T03:15:14.076Z,100971.56
2022-11-28T03:17:57.014Z,100969.81
2022-11-28T03:20:40.872Z,100969.50
2022-11-28T03:23:19.542Z,100980.28
2022-11-28T03:25:59.320Z,100965.13
2022-11-28T03:28:37.125Z,100972.91
2022-11-28T03:31:15.994Z,100967.53
2022-11-28T03:33:47.705Z,100970.06
2022-11-28T03:36:23.590Z,100964.41
2022-11-28T03:38:57.895Z,100965.03
2022-11-28T03:41:34.177Z,100960.94
2022-11-28T03:44:05.480Z,100964.25
2022-11-28T03:46:39.313Z,100966.94
2022-11-28T03:49:10.234Z,100986.59
2022-11-28T03:51:45.588Z,100974.59
2022-11-28T03:54:20.753Z,100968.34
2022-11-28T03:56:56.872Z,100966.41
2022-11-28T03:59:30.662Z,100962.41
2022-11-28T04:02:06.530Z,100968.56
2022-11-28T04:04:45.231Z,100968.63
2022-11-28T04:07:27.498Z,100968.97
2022-11-28T04:10:08.016Z,100967.34
2022-11-28T04:12:49.985Z,100978.19
2022-11-28T04:15:28.393Z,100974.16
2022-11-28T04:18:05.037Z,100980.44
2022-11-28T04:20:42.273Z,100979.50
2022-11-28T04:23:16.775Z,100975.38
2022-11-28T04:25:54.063Z,100973.72
2022-11-28T04:28:28.477Z,100974.16
2022-11-28T04:31:03.123Z,100980.16
2022-11-28T04:33:38.301Z,100978.56
2022-11-28T04:36:10.341Z,100979.38
2022-11-28T04:38:44.530Z,100976.41
2022-11-28T04:41:22.790Z,100979.44
2022-11-28T04:43:58.614Z,100977.28
2022-11-28T04:46:33.869Z,100985.75
2022-11-28T04:49:02.430Z,100983.13
2022-11-28T04:51:41.386Z,100987.50
2022-11-28T04:54:20.335Z,100974.72
2022-11-28T04:56:55.586Z,100987.31
2022-11-28T04:59:26.575Z,100988.78
2022-11-28T05:01:58.458Z,100983.88
2022-11-28T05:04:28.094Z,100985.56
2022-11-28T05:07:03.868Z,100983.81
2022-11-28T05:09:35.399Z,100985.41
2022-11-28T05:12:05.545Z,100986.75
2022-11-28T05:14:36.163Z,100992.31
2022-11-28T05:17:04.860Z,100986.16
2022-11-28T05:19:33.835Z,100998.97
2022-11-28T05:22:02.989Z,100999.41
2022-11-28T05:24:34.064Z,101000.28
2022-11-28T05:27:04.301Z,101003.81
2022-11-28T05:29:36.644Z,100995.78
2022-11-28T05:32:06.557Z,101003.59
2022-11-28T05:34:35.451Z,101015.47
2022-11-28T05:37:05.012Z,101000.84
2022-11-28T05:39:35.380Z,101020.72
2022-11-28T05:42:04.405Z,101020.91
2022-11-28T05:44:34.925Z,101018.94
2022-11-28T05:47:03.886Z,101016.00
2022-11-28T05:49:32.575Z,101011.91
2022-11-28T05:52:01.708Z,101023.41
2022-11-28T05:54:32.883Z,101015.56
2022-11-28T05:57:03.375Z,101029.00
2022-11-28T05:59:32.650Z,101021.69
2022-11-28T06:02:03.766Z,101012.28
2022-11-28T06:04:36.279Z,101025.53
2022-11-28T06:07:05.295Z,101017.44
2022-11-28T06:09:38.232Z,101024.28
2022-11-28T06:12:09.504Z,101021.19
2022-11-28T06:14:39.122Z,101021.38
2022-11-28T06:17:08.788Z,101028.31
2022-11-28T06:19:38.061Z,101027.34
2022-11-28T06:22:06.997Z,101032.47
2022-11-28T06:24:35.998Z,101036.00
2022-11-28T06:27:06.520Z,101040.00
2022-11-28T06:29:37.231Z,101037.56
2022-11-28T06:32:07.200Z,101032.53
2022-11-28T06:34:35.641Z,101034.09
2022-11-28T06:37:04.455Z,101029.28
2022-11-28T06:39:33.209Z,101036.00
2022-11-28T06:42:01.681Z,101038.03
2022-11-28T06:44:31.770Z,101038.97
2022-11-28T06:47:02.647Z,101046.94
2022-11-28T06:49:31.437Z,101037.25
2022-11-28T06:52:02.054Z,101050.97
2022-11-28T06:54:30.759Z,101046.56
2022-11-28T06:56:59.616Z,101055.34
2022-11-28T06:59:29.347Z,101051.63
2022-11-28T07:02:06.849Z,101058.81
2022-11-28T07:04:38.440Z,101055.28
2022-11-28T07:07:07.641Z,101056.78
2022-11-28T07:09:36.423Z,101052.00
2022-11-28T07:12:08.090Z,101058.06
2022-11-28T07:14:39.055Z,101054.13
2022-11-28T07:17:07.803Z,101058.16
2022-11-28T07:19:40.454Z,101059.63
2022-11-28T07:22:11.323Z,101069.94
2022-11-28T07:24:40.825Z,101072.44
2022-11-28T07:27:10.196Z,101070.19
2022-11-28T07:29:39.314Z,101068.94
2022-11-28T07:32:08.808Z,101077.88
2022-11-28T07:34:41.438Z,101075.06
2022-11-28T07:37:11.354Z,101094.81
2022-11-28T07:39:40.462Z,101090.19
2022-11-28T07:42:10.423Z,101097.31
2022-11-28T07:44:39.669Z,101099.06
2022-11-28T07:47:08.950Z,101101.13
2022-11-28T07:49:39.274Z,101098.91
2022-11-28T07:52:10.602Z,101091.44
2022-11-28T07:54:39.864Z,101100.56
2022-11-28T07:57:12.418Z,101095.94
2022-11-28T07:59:42.509Z,101102.91
2022-11-28T08:02:14.023Z,101108.72
2022-11-28T08:04:51.571Z,101108.78
2022-11-28T08:07:22.994Z,101106.06
2022-11-28T08:09:53.645Z,101099.50
2022-11-28T08:12:24.329Z,101100.47
2022-11-28T08:14:54.604Z,101102.28
2022-11-28T08:17:26.161Z,101099.56
2022-11-28T08:19:55.993Z,101106.53
2022-11-28T08:22:26.897Z,101110.81
2022-11-28T08:24:55.897Z,101102.19
2022-11-28T08:27:24.492Z,101103.41
2022-11-28T08:29:55.507Z,101104.28
2022-11-28T08:32:24.917Z,101107.41
2022-11-28T08:34:54.418Z,101105.00
2022-11-28T08:37:25.210Z,101113.56
2022-11-28T08:39:55.072Z,101115.06
2022-11-28T08:42:23.587Z,101119.81
2022-11-28T08:44:52.678Z,101120.72
2022-11-28T08:47:21.947Z,101122.66
2022-11-28T08:49:51.200Z,101126.72
2022-11-28T08:52:22.904Z,101125.84
2022-11-28T08:54:54.560Z,101116.47
2022-11-28T08:57:23.751Z,101121.59
2022-11-28T08:59:52.907Z,101111.28
2022-11-28T09:02:25.760Z,101124.19
2022-11-28T09:04:57.650Z,101116.25
2022-11-28T09:07:26.698Z,101126.50
2022-11-28T09:09:57.526Z,101124.91
2022-11-28T09:12:28.271Z,101126.72
2022-11-28T09:14:57.609Z,101125.13
2022-11-28T09:17:26.946Z,101130.97
2022-11-28T09:19:58.207Z,101128.97
2022-11-28T09:22:32.324Z,101127.78
2022-11-28T09:25:05.931Z,101130.94
2022-11-28T09:27:36.531Z,101131.50
2022-11-28T09:30:06.948Z,101144.13
2022-11-28T09:32:36.388Z,101146.38
2022-11-28T09:35:08.079Z,101140.13
2022-11-28T09:37:37.175Z,101145.81
2022-11-28T09:40:17.545Z,101136.72
2022-11-28T09:42:48.169Z,101133.81
2022-11-28T09:45:21.497Z,101140.88
2022-11-28T09:47:55.511Z,101150.47
2022-11-28T09:50:29.538Z,101149.81
2022-11-28T09:53:07.671Z,101157.31
2022-11-28T09:55:43.826Z,101144.53
2022-11-28T09:58:21.179Z,101157.00
2022-11-28T10:00:59.479Z,101153.31
2022-11-28T10:03:41.835Z,101145.44
2022-11-28T10:06:22.081Z,101152.63
2022-11-28T10:09:18.187Z,101147.28
2022-11-28T10:12:09.898Z,101139.53
2022-11-28T10:15:07.973Z,101145.41
2022-11-28T10:17:50.745Z,101148.53
2022-11-28T10:20:27.241Z,101157.06
2022-11-28T10:23:03.602Z,101150.44
2022-11-28T10:25:42.687Z,101156.59
2022-11-28T10:28:23.986Z,101162.69
2022-11-28T10:31:06.090Z,101171.19
2022-11-28T10:33:46.287Z,101163.66
2022-11-28T10:36:24.756Z,101173.16
2022-11-28T10:38:55.518Z,101163.31
2022-11-28T10:41:34.000Z,101169.97
2022-11-28T10:44:18.395Z,101168.69
2022-11-28T10:47:03.718Z,101171.00
2022-11-28T10:49:45.898Z,101163.75
2022-11-28T10:52:29.049Z,101172.75
2022-11-28T10:55:25.211Z,101157.00
2022-11-28T10:58:05.264Z,101155.75
2022-11-28T11:00:38.760Z,101158.69
2022-11-28T11:03:14.414Z,101155.19
2022-11-28T11:05:47.020Z,101160.13
2022-11-28T11:08:22.410Z,101159.06
2022-11-28T11:10:59.743Z,101162.56
2022-11-28T11:13:31.522Z,101146.06
2022-11-28T11:16:04.974Z,101142.47
2022-11-28T11:18:37.851Z,101145.25
2022-11-28T11:21:17.298Z,101144.72
2022-11-28T11:23:47.039Z,101149.47
2022-11-28T11:26:26.395Z,101149.97
2022-11-28T11:28:56.174Z,101160.72
2022-11-28T11:31:29.660Z,101170.63
2022-11-28T11:34:06.849Z,101163.53
2022-11-28T11:36:38.384Z,101162.69
2022-11-28T11:39:18.435Z,101160.94
2022-11-28T11:41:50.218Z,101167.28
2022-11-28T11:44:34.720Z,101162.72
2022-11-28T11:47:09.064Z,101171.53
2022-11-28T11:49:39.811Z,101161.63
2022-11-28T11:52:20.702Z,101162.34
2022-11-28T11:55:05.557Z,101169.81
2022-11-28T11:57:39.434Z,101155.22
2022-11-28T12:00:18.474Z,101162.19
2022-11-28T12:02:57.711Z,101158.22
2022-11-28T12:05:52.431Z,101163.66
2022-11-28T12:08:35.682Z,101169.50
2022-11-28T12:11:17.614Z,101162.88
2022-11-28T12:13:49.992Z,101163.75
2022-11-28T12:16:50.141Z,101152.88
2022-11-28T12:19:30.766Z,101161.44
2022-11-28T12:22:14.729Z,101158.19
2022-11-28T12:24:59.806Z,101168.09
2022-11-28T12:27:50.188Z,101174.41
2022-11-28T12:30:33.538Z,101180.41
2022-11-28T12:33:19.975Z,101174.78
2022-11-28T12:36:09.083Z,101173.97
2022-11-28T12:38:57.319Z,101172.09
2022-11-28T12:41:55.554Z,101179.34
2022-11-28T12:44:35.743Z,101189.66
2022-11-28T12:47:12.302Z,101176.78
2022-11-28T12:49:56.823Z,101176.31
2022-11-28T12:52:40.685Z,101174.53
2022-11-28T12:55:30.075Z,101168.47
2022-11-28T12:58:08.934Z,101180.91
2022-11-28T13:00:53.258Z,101180.38
2022-11-28T13:03:43.746Z,101176.41
2022-11-28T13:06:29.668Z,101175.25
2022-11-28T13:09:24.353Z,101184.41
2022-11-28T13:12:16.539Z,101179.19
2022-11-28T13:14:56.216Z,101188.75
2022-11-28T13:17:39.670Z,101190.97
2022-11-28T13:20:23.065Z,101188.31
2022-11-28T13:23:11.350Z,101192.13
2022-11-28T13:25:50.177Z,101195.81
2022-11-28T13:28:28.630Z,101190.38
2022-11-28T13:31:06.751Z,101190.25
2022-11-28T13:33:54.280Z,101178.59
2022-11-28T13:39:38.865Z,101180.66
2022-11-28T13:42:59.479Z,101177.16
2022-11-28T13:45:31.537Z,101176.53
2022-11-28T13:48:01.667Z,101177.97
2022-11-28T13:50:42.961Z,101182.38
2022-11-28T13:53:26.833Z,101191.13
2022-11-28T13:56:31.364Z,101195.78
2022-11-28T13:59:05.116Z,101196.69
2022-11-28T14:01:46.465Z,101200.91
2022-11-28T14:04:22.395Z,101197.09
2022-11-28T14:06:59.583Z,101199.28
2022-11-28T14:09:47.868Z,101205.88
2022-11-28T14:12:25.150Z,101199.38
2022-11-28T14:15:27.029Z,101216.03
2022-11-28T14:21:25.242Z,101210.84
2022-11-28T14:24:03.275Z,101208.69
2022-11-28T14:26:37.866Z,101219.25
2022-11-28T14:29:24.393Z,101224.66
2022-11-28T14:32:27.995Z,101224.09
2022-11-28T14:34:54.997Z,101231.50
2022-11-28T14:37:53.052Z,101222.81
2022-11-28T14:41:06.844Z,101226.84
2022-11-28T14:43:39.432Z,101225.25
2022-11-28T14:46:31.856Z,101227.44
2022-11-28T14:49:21.958Z,101223.94
2022-11-28T14:52:38.459Z,101233.91
2022-11-28T14:55:28.120Z,101230.38
2022-11-28T14:58:01.723Z,101224.75
2022-11-28T15:00:44.188Z,101230.56
2022-11-28T15:03:29.334Z,101223.94
2022-11-28T15:06:05.144Z,101239.59
2022-11-28T15:09:02.626Z,101233.19
2022-11-28T15:12:08.505Z,101235.75
2022-11-28T15:14:39.471Z,101237.69
2022-11-28T15:17:15.136Z,101231.63
2022-11-28T15:19:51.484Z,101235.25
2022-11-28T15:22:45.552Z,101240.38
2022-11-28T15:25:24.774Z,101243.84
2022-11-28T15:27:55.523Z,101251.56
2022-11-28T15:30:28.203Z,101253.28
2022-11-28T15:33:11.433Z,101252.63
2022-11-28T15:35:54.877Z,101249.53
2022-11-28T15:38:42.420Z,101266.66
2022-11-28T15:41:14.316Z,101273.94
2022-11-28T15:43:49.354Z,101276.63
2022-11-28T15:46:33.471Z,101273.81
2022-11-28T15:49:05.332Z,101282.59
2022-11-28T15:51:37.001Z,101281.44
2022-11-28T15:54:37.692Z,101283.38
2022-11-28T15:57:20.634Z,101290.75
2022-11-28T15:59:51.134Z,101293.09
2022-11-28T16:02:27.626Z,101298.75
2022-11-28T16:05:06.317Z,101300.84
2022-11-28T16:07:41.076Z,101301.09
2022-11-28T16:10:30.262Z,101305.25
2022-11-28T16:13:04.588Z,101313.22
2022-11-28T16:15:34.173Z,101320.16
2022-11-28T16:18:14.146Z,101318.44
2022-11-28T16:20:51.805Z,101313.22
2022-11-28T16:23:28.874Z,101310.13
2022-11-28T16:26:09.661Z,101310.81
2022-11-28T16:28:41.791Z,101301.97
2022-11-28T16:31:23.982Z,101318.19
2022-11-28T16:33:53.511Z,101312.28
2022-11-28T16:36:24.800Z,101318.69
2022-11-28T16:39:08.426Z,101319.63
2022-11-28T16:41:40.816Z,101320.16
2022-11-28T16:44:15.172Z,101313.25
2022-11-28T16:46:53.475Z,101316.88
2022-11-28T16:49:37.134Z,101321.88
2022-11-28T16:52:48.196Z,101314.81
2022-11-28T16:55:48.510Z,101316.00
2022-11-28T16:58:24.975Z,101316.22
2022-11-28T17:01:06.432Z,101326.00
2022-11-28T17:03:48.884Z,101323.66
2022-11-28T17:06:29.579Z,101335.03
2022-11-28T17:09:01.213Z,101332.81
2022-11-28T17:11:35.124Z,101341.13
2022-11-28T17:14:13.537Z,101346.09
2022-11-28T17:16:44.486Z,101341.66
2022-11-28T17:19:13.382Z,101348.59
2022-11-28T17:21:46.900Z,101349.16
2022-11-28T17:24:21.936Z,101347.84
2022-11-28T17:26:53.215Z,101348.63
2022-11-28T17:29:25.517Z,101353.38
2022-11-28T17:31:57.601Z,101358.31
2022-11-28T17:34:33.372Z,101356.75
2022-11-28T17:37:05.230Z,101358.91
2022-11-28T17:39:34.151Z,101363.06
2022-11-28T17:42:08.194Z,101363.25
2022-11-28T17:44:39.126Z,101364.94
2022-11-28T17:47:08.485Z,101374.66
2022-11-28T17:49:41.787Z,101371.19
2022-11-28T17:52:13.780Z,101368.44
2022-11-28T17:54:42.571Z,101364.94
2022-11-28T17:57:11.803Z,101367.88
2022-11-28T17:59:43.316Z,101367.97
2022-11-28T18:02:12.978Z,101369.84
2022-11-28T18:04:41.923Z,101370.81
2022-11-28T18:07:11.414Z,101369.31
2022-11-28T18:09:42.218Z,101375.59
2022-11-28T18:12:14.836Z,101378.88
2022-11-28T18:14:46.491Z,101387.94
2022-11-28T18:17:17.715Z,101384.25
2022-11-28T18:19:47.856Z,101400.22
2022-11-28T18:22:18.576Z,101390.59
2022-11-28T18:24:48.875Z,101396.38
2022-11-28T18:27:22.272Z,101391.94
2022-11-28T18:29:53.520Z,101399.09
2022-11-28T18:32:25.927Z,101395.78
2022-11-28T18:35:01.881Z,101403.91
2022-11-28T18:37:34.124Z,101411.81
2022-11-28T18:40:08.791Z,101409.75
2022-11-28T18:42:39.709Z,101413.84
2022-11-28T18:45:14.920Z,101415.59
2022-11-28T18:47:44.239Z,101418.03
2022-11-28T18:50:13.482Z,101416.75
2022-11-28T18:52:44.593Z,101423.06
2022-11-28T18:55:16.548Z,101427.41
2022-11-28T18:57:46.295Z,101428.00
2022-11-28T19:00:20.424Z,101437.63
2022-11-28T19:02:52.198Z,101437.06
2022-11-28T19:05:21.429Z,101448.03
2022-11-28T19:07:51.782Z,101442.44
2022-11-28T19:10:21.939Z,101443.13
2022-11-28T19:12:52.372Z,101434.22
2022-11-28T19:15:26.022Z,101436.53
2022-11-28T19:17:55.946Z,101433.38
2022-11-28T19:20:26.089Z,101435.97
2022-11-28T19:22:56.178Z,101433.75
2022-11-28T19:25:29.204Z,101451.50
2022-11-28T19:27:57.878Z,101452.44
2022-11-28T19:30:28.712Z,101452.84
2022-11-28T19:33:01.877Z,101453.19
2022-11-28T19:35:31.631Z,101449.91
2022-11-28T19:38:00.231Z,101447.78
2022-11-28T19:40:29.389Z,101454.66
2022-11-28T19:42:58.815Z,101454.25
2022-11-28T19:45:30.391Z,101452.75
2022-11-28T19:48:00.203Z,101446.88
2022-11-28T19:50:30.905Z,101452.53
2022-11-28T19:53:00.364Z,101452.59
2022-11-28T19:55:32.530Z,101445.84
2022-11-28T19:58:04.628Z,101446.28
2022-11-28T20:00:41.089Z,101455.69
2022-11-28T20:03:28.247Z,101460.50
2022-11-28T20:06:05.633Z,101460.03
2022-11-28T20:08:42.009Z,101455.47
2022-11-28T20:11:28.423Z,101450.25
2022-11-28T20:14:19.918Z,101457.34
2022-11-28T20:16:58.659Z,101465.06
2022-11-28T20:19:58.926Z,101459.28
2022-11-28T20:22:42.620Z,101468.69
2022-11-28T20:25:24.481Z,101474.38
2022-11-28T20:27:58.620Z,101481.97
2022-11-28T20:30:38.240Z,101476.81
2022-11-28T20:33:16.231Z,101487.72
2022-11-28T20:35:58.490Z,101492.16
2022-11-28T20:38:33.692Z,101500.53
2022-11-28T20:41:08.008Z,101501.19
2022-11-28T20:43:45.843Z,101496.66
2022-11-28T20:46:37.546Z,101501.22
2022-11-28T20:49:18.613Z,101505.47
2022-11-28T20:52:00.085Z,101510.44
2022-11-28T20:54:40.757Z,101524.84
2022-11-28T20:57:22.765Z,101513.38
2022-11-28T20:59:55.731Z,101523.22
2022-11-28T21:02:25.975Z,101531.28
2022-11-28T21:04:57.470Z,101533.31
2022-11-28T21:07:27.557Z,101535.78
2022-11-28T21:10:00.032Z,101536.75
2022-11-28T21:12:29.187Z,101522.94
2022-11-28T21:14:57.881Z,101518.88
2022-11-28T21:17:26.576Z,101518.38
2022-11-28T21:19:57.061Z,101520.97
2022-11-28T21:22:25.854Z,101523.16
2022-11-28T21:24:54.967Z,101513.47
2022-11-28T21:27:23.595Z,101524.09
2022-11-28T21:29:55.215Z,101521.88
2022-11-28T21:32:24.409Z,101527.31
2022-11-28T21:34:56.394Z,101532.06
2022-11-28T21:37:30.497Z,101519.53
2022-11-28T21:40:02.321Z,101521.22
2022-11-28T21:42:31.340Z,101523.19
2022-11-28T21:45:00.084Z,101524.56
2022-11-28T21:47:28.604Z,101525.50
2022-11-28T21:49:57.076Z,101542.38
2022-11-28T21:52:29.536Z,101528.53
2022-11-28T21:54:58.575Z,101545.50
2022-11-28T21:57:27.516Z,101539.38
2022-11-28T21:59:57.268Z,101540.88
2022-11-28T22:02:30.877Z,101545.34
2022-11-28T22:05:02.408Z,101548.09
2022-11-28T22:07:33.297Z,101557.44
2022-11-28T22:10:02.771Z,101558.94
2022-11-28T22:12:31.901Z,101564.66
2022-11-28T22:15:00.539Z,101558.31
2022-11-28T22:17:31.841Z,101565.72
2022-11-28T22:20:01.693Z,101563.16
2022-11-28T22:22:32.169Z,101565.13
2022-11-28T22:25:02.929Z,101555.19
2022-11-28T22:27:35.414Z,101564.19
2022-11-28T22:30:05.140Z,101566.94
2022-11-28T22:32:34.083Z,101561.34
2022-11-28T22:35:07.827Z,101566.34
2022-11-28T22:37:39.476Z,101569.25
2022-11-28T22:40:10.087Z,101580.03
2022-11-28T22:42:39.571Z,101579.81
2022-11-28T22:45:12.600Z,101578.19
2022-11-28T22:47:44.188Z,101581.56
2022-11-28T22:50:13.410Z,101580.56
2022-11-28T22:52:44.778Z,101578.72
2022-11-28T22:55:13.718Z,101577.97
2022-11-28T22:57:42.884Z,101576.03
2022-11-28T23:00:14.019Z,101579.66
2022-11-28T23:02:43.125Z,101581.41
2022-11-28T23:05:11.687Z,101573.28
2022-11-28T23:07:42.234Z,101579.69
2022-11-28T23:10:13.552Z,101580.84
2022-11-28T23:12:42.754Z,101582.94
2022-11-28T23:15:12.024Z,101585.75
2022-11-28T23:17:41.055Z,101598.47
2022-11-28T23:20:11.645Z,101584.75
2022-11-28T23:22:40.876Z,101585.19
2022-11-28T23:25:12.865Z,101580.69
2022-11-28T23:27:41.667Z,101583.16
2022-11-28T23:30:11.615Z,101578.50
2022-11-28T23:32:40.556Z,101581.09
2022-11-28T23:35:10.927Z,101582.78
2022-11-28T23:37:41.590Z,101574.88
2022-11-28T23:40:13.493Z,101577.41
2022-11-28T23:42:41.870Z,101585.97
2022-11-28T23:45:12.986Z,101591.91
2022-11-28T23:47:41.640Z,101589.56
2022-11-28T23:50:12.227Z,101589.22
2022-11-28T23:52:40.697Z,101589.53
2022-11-28T23:55:13.132Z,101603.53
2022-11-28T23:57:42.404Z,101601.59
